sensor_id;sensor_type;location;lat;lon;timestamp;temperature;humidity
67157;SHT31;54086;50.126;8.710;2023-03-23T00:02:10;15.03;61.65
67157;SHT31;54086;50.126;8.710;2023-03-23T00:04:36;15.03;61.74
67157;SHT31;54086;50.126;8.710;2023-03-23T00:07:02;15.02;61.82
67157;SHT31;54086;50.126;8.710;2023-03-23T00:09:28;14.99;61.91
67157;SHT31;54086;50.126;8.710;2023-03-23T00:11:53;14.97;62.06
67157;SHT31;54086;50.126;8.710;2023-03-23T00:14:23;14.97;62.08
67157;SHT31;54086;50.126;8.710;2023-03-23T00:16:49;14.95;62.21
67157;SHT31;54086;50.126;8.710;2023-03-23T00:19:15;14.95;62.38
67157;SHT31;54086;50.126;8.710;2023-03-23T00:21:42;14.95;62.39
67157;SHT31;54086;50.126;8.710;2023-03-23T00:26:37;14.90;62.59
67157;SHT31;54086;50.126;8.710;2023-03-23T00:29:15;14.92;62.50
67157;SHT31;54086;50.126;8.710;2023-03-23T00:31:43;14.90;62.47
67157;SHT31;54086;50.126;8.710;2023-03-23T00:34:16;14.95;62.39
67157;SHT31;54086;50.126;8.710;2023-03-23T00:36:48;14.97;62.38
67157;SHT31;54086;50.126;8.710;2023-03-23T00:39:14;14.96;62.38
67157;SHT31;54086;50.126;8.710;2023-03-23T00:41:42;14.99;62.29
67157;SHT31;54086;50.126;8.710;2023-03-23T00:44:07;14.96;62.42
67157;SHT31;54086;50.126;8.710;2023-03-23T00:46:33;14.90;62.62
67157;SHT31;54086;50.126;8.710;2023-03-23T00:48:59;14.96;62.58
67157;SHT31;54086;50.126;8.710;2023-03-23T00:51:25;14.93;62.58
67157;SHT31;54086;50.126;8.710;2023-03-23T00:53:51;14.90;62.61
67157;SHT31;54086;50.126;8.710;2023-03-23T00:56:16;14.89;62.78
67157;SHT31;54086;50.126;8.710;2023-03-23T00:58:42;14.87;62.89
67157;SHT31;54086;50.126;8.710;2023-03-23T01:01:08;14.86;62.91
67157;SHT31;54086;50.126;8.710;2023-03-23T01:03:35;14.83;63.09
67157;SHT31;54086;50.126;8.710;2023-03-23T01:06:09;14.83;63.10
67157;SHT31;54086;50.126;8.710;2023-03-23T01:08:38;14.77;63.31
67157;SHT31;54086;50.126;8.710;2023-03-23T01:11:12;14.79;63.29
67157;SHT31;54086;50.126;8.710;2023-03-23T01:13:37;14.80;63.26
67157;SHT31;54086;50.126;8.710;2023-03-23T01:16:03;14.77;63.34
67157;SHT31;54086;50.126;8.710;2023-03-23T01:18:28;14.76;63.44
67157;SHT31;54086;50.126;8.710;2023-03-23T01:20:54;14.73;63.56
67157;SHT31;54086;50.126;8.710;2023-03-23T01:23:19;14.72;63.73
67157;SHT31;54086;50.126;8.710;2023-03-23T01:25:44;14.69;63.98
67157;SHT31;54086;50.126;8.710;2023-03-23T01:28:10;14.66;64.17
67157;SHT31;54086;50.126;8.710;2023-03-23T01:30:36;14.64;64.42
67157;SHT31;54086;50.126;8.710;2023-03-23T01:33:02;14.64;64.64
67157;SHT31;54086;50.126;8.710;2023-03-23T01:35:27;14.62;64.81
67157;SHT31;54086;50.126;8.710;2023-03-23T01:37:56;14.59;65.10
67157;SHT31;54086;50.126;8.710;2023-03-23T01:40:21;14.59;65.09
67157;SHT31;54086;50.126;8.710;2023-03-23T01:42:47;14.56;65.27
67157;SHT31;54086;50.126;8.710;2023-03-23T01:45:51;14.58;64.81
67157;SHT31;54086;50.126;8.710;2023-03-23T01:48:21;14.59;64.86
67157;SHT31;54086;50.126;8.710;2023-03-23T01:50:57;14.58;64.88
67157;SHT31;54086;50.126;8.710;2023-03-23T01:53:26;14.64;64.69
67157;SHT31;54086;50.126;8.710;2023-03-23T01:55:54;14.58;64.78
67157;SHT31;54086;50.126;8.710;2023-03-23T01:58:25;14.58;64.86
67157;SHT31;54086;50.126;8.710;2023-03-23T02:00:54;14.59;64.72
67157;SHT31;54086;50.126;8.710;2023-03-23T02:03:21;14.61;64.60
67157;SHT31;54086;50.126;8.710;2023-03-23T02:05:49;14.62;64.50
67157;SHT31;54086;50.126;8.710;2023-03-23T02:08:15;14.59;64.52
67157;SHT31;54086;50.126;8.710;2023-03-23T02:10:43;14.61;64.45
67157;SHT31;54086;50.126;8.710;2023-03-23T02:13:11;14.59;64.52
67157;SHT31;54086;50.126;8.710;2023-03-23T02:15:53;14.58;64.56
67157;SHT31;54086;50.126;8.710;2023-03-23T02:21:20;14.56;64.65
67157;SHT31;54086;50.126;8.710;2023-03-23T02:34:56;14.51;64.71
67157;SHT31;54086;50.126;8.710;2023-03-23T02:37:31;14.45;65.07
67157;SHT31;54086;50.126;8.710;2023-03-23T02:40:21;14.45;65.59
67157;SHT31;54086;50.126;8.710;2023-03-23T02:42:53;14.42;65.75
67157;SHT31;54086;50.126;8.710;2023-03-23T02:45:20;14.36;66.39
67157;SHT31;54086;50.126;8.710;2023-03-23T02:47:50;14.29;67.10
67157;SHT31;54086;50.126;8.710;2023-03-23T02:50:17;14.28;68.25
67157;SHT31;54086;50.126;8.710;2023-03-23T02:52:46;14.22;69.47
67157;SHT31;54086;50.126;8.710;2023-03-23T02:55:13;14.07;70.32
67157;SHT31;54086;50.126;8.710;2023-03-23T02:57:39;13.91;71.49
67157;SHT31;54086;50.126;8.710;2023-03-23T03:00:06;13.76;73.20
67157;SHT31;54086;50.126;8.710;2023-03-23T03:02:54;13.56;74.92
67157;SHT31;54086;50.126;8.710;2023-03-23T03:11:14;13.30;75.31
67157;SHT31;54086;50.126;8.710;2023-03-23T03:19:02;13.26;76.31
67157;SHT31;54086;50.126;8.710;2023-03-23T03:21:31;13.25;76.14
67157;SHT31;54086;50.126;8.710;2023-03-23T03:24:00;13.26;76.35
67157;SHT31;54086;50.126;8.710;2023-03-23T03:26:27;13.22;76.41
67157;SHT31;54086;50.126;8.710;2023-03-23T03:28:54;13.23;76.75
67157;SHT31;54086;50.126;8.710;2023-03-23T03:31:32;13.26;76.61
67157;SHT31;54086;50.126;8.710;2023-03-23T03:33:58;13.26;76.87
67157;SHT31;54086;50.126;8.710;2023-03-23T03:36:29;13.19;76.60
67157;SHT31;54086;50.126;8.710;2023-03-23T03:39:01;13.08;77.35
67157;SHT31;54086;50.126;8.710;2023-03-23T03:41:33;13.05;77.87
67157;SHT31;54086;50.126;8.710;2023-03-23T03:43:58;13.05;78.44
67157;SHT31;54086;50.126;8.710;2023-03-23T03:46:24;13.02;78.98
67157;SHT31;54086;50.126;8.710;2023-03-23T03:48:52;13.02;78.92
67157;SHT31;54086;50.126;8.710;2023-03-23T03:51:17;13.08;79.15
67157;SHT31;54086;50.126;8.710;2023-03-23T03:53:43;13.06;80.28
67157;SHT31;54086;50.126;8.710;2023-03-23T03:56:08;13.09;80.00
67157;SHT31;54086;50.126;8.710;2023-03-23T03:58:33;13.04;79.88
67157;SHT31;54086;50.126;8.710;2023-03-23T04:01:02;13.02;79.71
67157;SHT31;54086;50.126;8.710;2023-03-23T04:03:27;13.09;78.29
67157;SHT31;54086;50.126;8.710;2023-03-23T04:05:56;13.12;77.69
67157;SHT31;54086;50.126;8.710;2023-03-23T04:08:24;13.06;78.28
67157;SHT31;54086;50.126;8.710;2023-03-23T04:10:52;12.99;78.42
67157;SHT31;54086;50.126;8.710;2023-03-23T04:13:19;13.05;78.14
67157;SHT31;54086;50.126;8.710;2023-03-23T04:15:45;13.12;78.21
67157;SHT31;54086;50.126;8.710;2023-03-23T04:18:10;13.12;77.58
67157;SHT31;54086;50.126;8.710;2023-03-23T04:20:37;13.16;77.46
67157;SHT31;54086;50.126;8.710;2023-03-23T04:23:02;13.23;76.66
67157;SHT31;54086;50.126;8.710;2023-03-23T04:25:28;13.26;76.59
67157;SHT31;54086;50.126;8.710;2023-03-23T04:27:53;13.22;77.01
67157;SHT31;54086;50.126;8.710;2023-03-23T04:30:21;13.22;77.33
67157;SHT31;54086;50.126;8.710;2023-03-23T04:32:48;13.25;78.49
67157;SHT31;54086;50.126;8.710;2023-03-23T04:35:17;13.23;78.21
67157;SHT31;54086;50.126;8.710;2023-03-23T04:37:42;13.28;77.93
67157;SHT31;54086;50.126;8.710;2023-03-23T04:40:09;13.12;78.31
67157;SHT31;54086;50.126;8.710;2023-03-23T04:42:41;13.05;78.74
67157;SHT31;54086;50.126;8.710;2023-03-23T04:45:11;12.99;78.89
67157;SHT31;54086;50.126;8.710;2023-03-23T04:47:38;13.02;78.67
67157;SHT31;54086;50.126;8.710;2023-03-23T04:50:14;12.97;78.76
67157;SHT31;54086;50.126;8.710;2023-03-23T04:52:39;12.99;78.92
67157;SHT31;54086;50.126;8.710;2023-03-23T04:55:09;12.94;79.05
67157;SHT31;54086;50.126;8.710;2023-03-23T04:57:35;12.92;79.27
67157;SHT31;54086;50.126;8.710;2023-03-23T05:00:04;12.94;79.31
67157;SHT31;54086;50.126;8.710;2023-03-23T05:02:36;12.91;78.97
67157;SHT31;54086;50.126;8.710;2023-03-23T05:05:02;12.94;78.71
67157;SHT31;54086;50.126;8.710;2023-03-23T05:07:28;12.94;78.75
67157;SHT31;54086;50.126;8.710;2023-03-23T05:09:53;12.95;78.85
67157;SHT31;54086;50.126;8.710;2023-03-23T05:12:18;12.98;78.50
67157;SHT31;54086;50.126;8.710;2023-03-23T05:14:44;13.01;78.89
67157;SHT31;54086;50.126;8.710;2023-03-23T05:17:09;12.97;79.09
67157;SHT31;54086;50.126;8.710;2023-03-23T05:19:35;12.97;79.18
67157;SHT31;54086;50.126;8.710;2023-03-23T05:22:03;12.94;79.59
67157;SHT31;54086;50.126;8.710;2023-03-23T05:24:32;12.94;79.22
67157;SHT31;54086;50.126;8.710;2023-03-23T05:27:01;12.97;79.46
67157;SHT31;54086;50.126;8.710;2023-03-23T05:29:28;12.97;79.39
67157;SHT31;54086;50.126;8.710;2023-03-23T05:31:56;12.97;79.71
67157;SHT31;54086;50.126;8.710;2023-03-23T05:34:25;12.95;79.38
67157;SHT31;54086;50.126;8.710;2023-03-23T05:36:51;12.98;80.11
67157;SHT31;54086;50.126;8.710;2023-03-23T05:39:18;13.04;79.78
67157;SHT31;54086;50.126;8.710;2023-03-23T05:41:43;13.14;79.25
67157;SHT31;54086;50.126;8.710;2023-03-23T05:44:09;13.12;79.51
67157;SHT31;54086;50.126;8.710;2023-03-23T05:46:34;13.22;79.41
67157;SHT31;54086;50.126;8.710;2023-03-23T05:49:00;13.28;78.95
67157;SHT31;54086;50.126;8.710;2023-03-23T05:51:25;13.22;79.16
67157;SHT31;54086;50.126;8.710;2023-03-23T05:53:51;13.25;78.82
67157;SHT31;54086;50.126;8.710;2023-03-23T05:56:17;13.23;79.37
67157;SHT31;54086;50.126;8.710;2023-03-23T05:58:43;13.22;79.09
67157;SHT31;54086;50.126;8.710;2023-03-23T06:01:09;13.26;79.38
67157;SHT31;54086;50.126;8.710;2023-03-23T06:03:34;13.28;79.61
67157;SHT31;54086;50.126;8.710;2023-03-23T06:06:03;13.23;79.16
67157;SHT31;54086;50.126;8.710;2023-03-23T06:08:29;13.28;79.39
67157;SHT31;54086;50.126;8.710;2023-03-23T06:10:54;13.23;79.76
67157;SHT31;54086;50.126;8.710;2023-03-23T06:13:20;13.22;79.75
67157;SHT31;54086;50.126;8.710;2023-03-23T06:15:46;13.23;79.77
67157;SHT31;54086;50.126;8.710;2023-03-23T06:18:13;13.23;79.77
67157;SHT31;54086;50.126;8.710;2023-03-23T06:20:39;13.18;80.17
67157;SHT31;54086;50.126;8.710;2023-03-23T06:23:05;13.22;80.19
67157;SHT31;54086;50.126;8.710;2023-03-23T06:25:32;13.23;80.26
67157;SHT31;54086;50.126;8.710;2023-03-23T06:27:58;13.25;80.54
67157;SHT31;54086;50.126;8.710;2023-03-23T06:30:24;13.26;80.29
67157;SHT31;54086;50.126;8.710;2023-03-23T06:32:50;13.22;80.23
67157;SHT31;54086;50.126;8.710;2023-03-23T06:35:16;13.15;80.62
67157;SHT31;54086;50.126;8.710;2023-03-23T06:37:41;13.14;80.58
67157;SHT31;54086;50.126;8.710;2023-03-23T06:40:08;13.08;80.68
67157;SHT31;54086;50.126;8.710;2023-03-23T06:42:35;13.02;81.15
67157;SHT31;54086;50.126;8.710;2023-03-23T06:45:02;13.05;81.46
67157;SHT31;54086;50.126;8.710;2023-03-23T06:47:28;13.08;81.15
67157;SHT31;54086;50.126;8.710;2023-03-23T06:49:59;13.08;81.43
67157;SHT31;54086;50.126;8.710;2023-03-23T06:52:25;13.05;81.61
67157;SHT31;54086;50.126;8.710;2023-03-23T06:54:51;13.04;81.78
67157;SHT31;54086;50.126;8.710;2023-03-23T06:57:18;13.05;82.16
67157;SHT31;54086;50.126;8.710;2023-03-23T06:59:43;13.11;82.01
67157;SHT31;54086;50.126;8.710;2023-03-23T07:02:11;13.12;81.85
67157;SHT31;54086;50.126;8.710;2023-03-23T07:04:37;13.11;81.99
67157;SHT31;54086;50.126;8.710;2023-03-23T07:07:04;13.11;82.08
67157;SHT31;54086;50.126;8.710;2023-03-23T07:09:30;13.16;82.26
67157;SHT31;54086;50.126;8.710;2023-03-23T07:11:56;13.19;82.11
67157;SHT31;54086;50.126;8.710;2023-03-23T07:14:21;13.20;82.10
67157;SHT31;54086;50.126;8.710;2023-03-23T07:16:47;13.15;82.19
67157;SHT31;54086;50.126;8.710;2023-03-23T07:19:13;13.15;82.40
67157;SHT31;54086;50.126;8.710;2023-03-23T07:21:38;13.19;82.94
67157;SHT31;54086;50.126;8.710;2023-03-23T07:24:04;13.15;83.30
67157;SHT31;54086;50.126;8.710;2023-03-23T07:26:29;13.14;84.14
67157;SHT31;54086;50.126;8.710;2023-03-23T07:28:55;13.02;84.23
67157;SHT31;54086;50.126;8.710;2023-03-23T07:31:20;12.92;84.54
67157;SHT31;54086;50.126;8.710;2023-03-23T07:33:46;12.94;84.85
67157;SHT31;54086;50.126;8.710;2023-03-23T07:36:11;12.91;84.86
67157;SHT31;54086;50.126;8.710;2023-03-23T07:38:37;12.88;85.07
67157;SHT31;54086;50.126;8.710;2023-03-23T07:41:04;12.84;85.18
67157;SHT31;54086;50.126;8.710;2023-03-23T07:43:30;12.89;85.22
67157;SHT31;54086;50.126;8.710;2023-03-23T07:45:55;12.89;85.46
67157;SHT31;54086;50.126;8.710;2023-03-23T07:48:21;12.83;85.74
67157;SHT31;54086;50.126;8.710;2023-03-23T07:50:47;12.88;85.60
67157;SHT31;54086;50.126;8.710;2023-03-23T07:53:12;12.87;85.59
67157;SHT31;54086;50.126;8.710;2023-03-23T07:55:38;12.94;85.46
67157;SHT31;54086;50.126;8.710;2023-03-23T07:58:03;12.95;85.42
67157;SHT31;54086;50.126;8.710;2023-03-23T08:00:29;12.95;85.49
67157;SHT31;54086;50.126;8.710;2023-03-23T08:02:56;12.98;85.26
67157;SHT31;54086;50.126;8.710;2023-03-23T08:05:26;12.94;85.12
67157;SHT31;54086;50.126;8.710;2023-03-23T08:07:53;12.97;84.75
67157;SHT31;54086;50.126;8.710;2023-03-23T08:10:20;12.92;84.98
67157;SHT31;54086;50.126;8.710;2023-03-23T08:12:51;12.99;84.70
67157;SHT31;54086;50.126;8.710;2023-03-23T08:15:17;13.05;84.28
67157;SHT31;54086;50.126;8.710;2023-03-23T08:17:43;12.98;84.11
67157;SHT31;54086;50.126;8.710;2023-03-23T08:20:10;13.05;84.26
67157;SHT31;54086;50.126;8.710;2023-03-23T08:22:45;13.05;84.02
67157;SHT31;54086;50.126;8.710;2023-03-23T08:25:13;13.02;83.76
67157;SHT31;54086;50.126;8.710;2023-03-23T08:27:39;13.04;83.92
67157;SHT31;54086;50.126;8.710;2023-03-23T08:30:10;13.06;83.82
67157;SHT31;54086;50.126;8.710;2023-03-23T08:32:37;13.06;83.79
67157;SHT31;54086;50.126;8.710;2023-03-23T08:35:03;13.08;83.62
67157;SHT31;54086;50.126;8.710;2023-03-23T08:37:29;13.15;83.61
67157;SHT31;54086;50.126;8.710;2023-03-23T08:39:55;13.14;83.79
67157;SHT31;54086;50.126;8.710;2023-03-23T08:42:23;13.12;83.61
67157;SHT31;54086;50.126;8.710;2023-03-23T08:44:49;13.12;83.64
67157;SHT31;54086;50.126;8.710;2023-03-23T08:47:15;13.19;83.53
67157;SHT31;54086;50.126;8.710;2023-03-23T08:49:41;13.18;83.37
67157;SHT31;54086;50.126;8.710;2023-03-23T08:52:08;13.16;83.63
67157;SHT31;54086;50.126;8.710;2023-03-23T08:54:34;13.19;83.44
67157;SHT31;54086;50.126;8.710;2023-03-23T08:57:00;13.22;83.33
67157;SHT31;54086;50.126;8.710;2023-03-23T08:59:26;13.25;83.38
67157;SHT31;54086;50.126;8.710;2023-03-23T09:01:52;13.28;83.20
67157;SHT31;54086;50.126;8.710;2023-03-23T09:04:17;13.29;83.28
67157;SHT31;54086;50.126;8.710;2023-03-23T09:06:43;13.28;83.10
67157;SHT31;54086;50.126;8.710;2023-03-23T09:09:09;13.34;83.00
67157;SHT31;54086;50.126;8.710;2023-03-23T09:11:35;13.39;83.32
67157;SHT31;54086;50.126;8.710;2023-03-23T09:14:07;13.49;82.81
67157;SHT31;54086;50.126;8.710;2023-03-23T09:16:33;13.52;82.41
67157;SHT31;54086;50.126;8.710;2023-03-23T09:18:59;13.63;82.72
67157;SHT31;54086;50.126;8.710;2023-03-23T09:21:27;13.57;81.98
67157;SHT31;54086;50.126;8.710;2023-03-23T09:23:52;13.73;82.26
67157;SHT31;54086;50.126;8.710;2023-03-23T09:26:18;13.88;81.53
67157;SHT31;54086;50.126;8.710;2023-03-23T09:28:44;13.91;81.20
67157;SHT31;54086;50.126;8.710;2023-03-23T09:31:11;13.90;81.18
67157;SHT31;54086;50.126;8.710;2023-03-23T09:33:37;13.88;80.70
67157;SHT31;54086;50.126;8.710;2023-03-23T09:36:03;14.01;80.45
67157;SHT31;54086;50.126;8.710;2023-03-23T09:38:30;14.11;80.00
67157;SHT31;54086;50.126;8.710;2023-03-23T09:41:43;14.21;79.76
67157;SHT31;54086;50.126;8.710;2023-03-23T09:47:08;14.87;77.60
67157;SHT31;54086;50.126;8.710;2023-03-23T09:49:43;14.96;76.99
67157;SHT31;54086;50.126;8.710;2023-03-23T09:52:15;15.28;75.65
67157;SHT31;54086;50.126;8.710;2023-03-23T09:54:43;15.50;75.32
67157;SHT31;54086;50.126;8.710;2023-03-23T09:57:22;15.08;75.14
67157;SHT31;54086;50.126;8.710;2023-03-23T09:59:58;15.24;74.24
67157;SHT31;54086;50.126;8.710;2023-03-23T10:02:40;15.28;74.95
67157;SHT31;54086;50.126;8.710;2023-03-23T10:05:40;15.44;74.90
67157;SHT31;54086;50.126;8.710;2023-03-23T10:08:15;15.33;75.76
67157;SHT31;54086;50.126;8.710;2023-03-23T10:16:02;14.69;79.11
67157;SHT31;54086;50.126;8.710;2023-03-23T10:18:43;14.46;79.90
67157;SHT31;54086;50.126;8.710;2023-03-23T10:21:17;14.39;80.57
67157;SHT31;54086;50.126;8.710;2023-03-23T10:24:04;14.38;81.15
67157;SHT31;54086;50.126;8.710;2023-03-23T10:26:42;14.27;81.05
67157;SHT31;54086;50.126;8.710;2023-03-23T10:29:28;14.08;81.84
67157;SHT31;54086;50.126;8.710;2023-03-23T10:34:47;14.05;80.37
67157;SHT31;54086;50.126;8.710;2023-03-23T10:37:21;14.14;80.82
67157;SHT31;54086;50.126;8.710;2023-03-23T10:39:57;14.10;79.97
67157;SHT31;54086;50.126;8.710;2023-03-23T10:44:56;14.11;80.49
67157;SHT31;54086;50.126;8.710;2023-03-23T10:47:22;14.14;80.79
67157;SHT31;54086;50.126;8.710;2023-03-23T10:49:52;14.25;80.09
67157;SHT31;54086;50.126;8.710;2023-03-23T10:52:36;14.14;80.13
67157;SHT31;54086;50.126;8.710;2023-03-23T10:55:12;14.13;80.36
67157;SHT31;54086;50.126;8.710;2023-03-23T10:57:43;14.24;79.82
67157;SHT31;54086;50.126;8.710;2023-03-23T11:00:21;14.28;79.58
67157;SHT31;54086;50.126;8.710;2023-03-23T11:05:47;14.31;78.42
67157;SHT31;54086;50.126;8.710;2023-03-23T11:08:21;14.18;78.65
67157;SHT31;54086;50.126;8.710;2023-03-23T11:10:56;14.24;79.06
67157;SHT31;54086;50.126;8.710;2023-03-23T11:13:28;14.18;79.62
67157;SHT31;54086;50.126;8.710;2023-03-23T11:15:54;14.05;80.56
67157;SHT31;54086;50.126;8.710;2023-03-23T11:20:50;13.87;80.52
67157;SHT31;54086;50.126;8.710;2023-03-23T11:28:32;14.03;80.01
67157;SHT31;54086;50.126;8.710;2023-03-23T11:31:01;14.22;79.48
67157;SHT31;54086;50.126;8.710;2023-03-23T11:33:36;14.20;78.88
67157;SHT31;54086;50.126;8.710;2023-03-23T11:36:05;14.15;78.86
67157;SHT31;54086;50.126;8.710;2023-03-23T11:38:32;14.56;77.85
67157;SHT31;54086;50.126;8.710;2023-03-23T11:40:59;14.49;77.55
67157;SHT31;54086;50.126;8.710;2023-03-23T11:43:25;14.92;76.42
67157;SHT31;54086;50.126;8.710;2023-03-23T11:54:49;14.87;76.57
67157;SHT31;54086;50.126;8.710;2023-03-23T11:57:16;14.75;77.17
67157;SHT31;54086;50.126;8.710;2023-03-23T11:59:41;14.90;77.06
67157;SHT31;54086;50.126;8.710;2023-03-23T12:07:43;15.37;75.41
67157;SHT31;54086;50.126;8.710;2023-03-23T12:21:10;15.22;76.08
67157;SHT31;54086;50.126;8.710;2023-03-23T12:24:30;15.08;76.47
67157;SHT31;54086;50.126;8.710;2023-03-23T12:26:31;14.82;77.57
67157;SHT31;54086;50.126;8.710;2023-03-23T12:32:13;14.76;78.11
67157;SHT31;54086;50.126;8.710;2023-03-23T12:38:01;14.97;77.21
67157;SHT31;54086;50.126;8.710;2023-03-23T12:42:40;14.96;77.24
67157;SHT31;54086;50.126;8.710;2023-03-23T12:48:24;15.13;75.85
67157;SHT31;54086;50.126;8.710;2023-03-23T12:51:12;15.30;75.70
67157;SHT31;54086;50.126;8.710;2023-03-23T12:56:28;15.51;75.35
67157;SHT31;54086;50.126;8.710;2023-03-23T12:59:14;15.34;75.44
67157;SHT31;54086;50.126;8.710;2023-03-23T13:01:45;15.33;75.45
67157;SHT31;54086;50.126;8.710;2023-03-23T13:04:21;15.40;74.81
67157;SHT31;54086;50.126;8.710;2023-03-23T13:06:49;15.14;75.13
67157;SHT31;54086;50.126;8.710;2023-03-23T13:12:09;15.45;74.39
67157;SHT31;54086;50.126;8.710;2023-03-23T13:24:07;15.40;74.28
67157;SHT31;54086;50.126;8.710;2023-03-23T13:26:11;15.69;73.42
67157;SHT31;54086;50.126;8.710;2023-03-23T13:28:56;15.75;73.28
67157;SHT31;54086;50.126;8.710;2023-03-23T13:31:29;16.17;72.53
67157;SHT31;54086;50.126;8.710;2023-03-23T13:34:06;16.49;71.91
67157;SHT31;54086;50.126;8.710;2023-03-23T13:36:38;16.89;70.95
67157;SHT31;54086;50.126;8.710;2023-03-23T13:39:06;17.21;69.83
67157;SHT31;54086;50.126;8.710;2023-03-23T13:45:05;16.84;70.44
67157;SHT31;54086;50.126;8.710;2023-03-23T13:47:40;16.52;71.84
67157;SHT31;54086;50.126;8.710;2023-03-23T13:57:56;15.91;73.20
67157;SHT31;54086;50.126;8.710;2023-03-23T14:08:01;15.37;74.79
67157;SHT31;54086;50.126;8.710;2023-03-23T14:10:35;15.45;74.68
67157;SHT31;54086;50.126;8.710;2023-03-23T14:13:03;15.37;75.15
67157;SHT31;54086;50.126;8.710;2023-03-23T14:15:42;15.37;75.32
67157;SHT31;54086;50.126;8.710;2023-03-23T14:18:14;15.23;75.79
67157;SHT31;54086;50.126;8.710;2023-03-23T14:20:40;15.10;76.17
67157;SHT31;54086;50.126;8.710;2023-03-23T14:23:15;15.07;76.45
67157;SHT31;54086;50.126;8.710;2023-03-23T14:25:41;14.97;76.29
67157;SHT31;54086;50.126;8.710;2023-03-23T14:28:19;15.08;76.06
67157;SHT31;54086;50.126;8.710;2023-03-23T14:30:48;15.13;76.00
67157;SHT31;54086;50.126;8.710;2023-03-23T14:33:18;15.14;75.88
67157;SHT31;54086;50.126;8.710;2023-03-23T14:35:45;15.16;75.62
67157;SHT31;54086;50.126;8.710;2023-03-23T14:38:19;15.19;75.72
67157;SHT31;54086;50.126;8.710;2023-03-23T14:40:46;15.19;75.76
67157;SHT31;54086;50.126;8.710;2023-03-23T14:43:15;15.13;76.04
67157;SHT31;54086;50.126;8.710;2023-03-23T14:45:41;15.13;76.08
67157;SHT31;54086;50.126;8.710;2023-03-23T14:48:07;15.14;76.25
67157;SHT31;54086;50.126;8.710;2023-03-23T14:51:08;15.16;76.51
67157;SHT31;54086;50.126;8.710;2023-03-23T14:56:01;15.04;76.86
67157;SHT31;54086;50.126;8.710;2023-03-23T14:58:28;14.87;77.23
67157;SHT31;54086;50.126;8.710;2023-03-23T15:00:59;14.87;77.05
67157;SHT31;54086;50.126;8.710;2023-03-23T15:03:27;14.99;76.64
67157;SHT31;54086;50.126;8.710;2023-03-23T15:05:56;15.17;75.86
67157;SHT31;54086;50.126;8.710;2023-03-23T15:08:30;15.34;75.47
67157;SHT31;54086;50.126;8.710;2023-03-23T15:13:30;15.41;74.41
67157;SHT31;54086;50.126;8.710;2023-03-23T15:16:04;15.31;74.46
67157;SHT31;54086;50.126;8.710;2023-03-23T15:18:33;15.35;74.33
67157;SHT31;54086;50.126;8.710;2023-03-23T15:21:08;15.34;74.23
67157;SHT31;54086;50.126;8.710;2023-03-23T15:23:34;15.33;74.39
67157;SHT31;54086;50.126;8.710;2023-03-23T15:26:06;15.34;74.36
67157;SHT31;54086;50.126;8.710;2023-03-23T15:28:39;15.31;74.12
67157;SHT31;54086;50.126;8.710;2023-03-23T15:31:06;15.22;73.90
67157;SHT31;54086;50.126;8.710;2023-03-23T15:33:39;15.19;73.98
67157;SHT31;54086;50.126;8.710;2023-03-23T15:36:08;15.27;73.80
67157;SHT31;54086;50.126;8.710;2023-03-23T15:38:35;15.20;74.01
67157;SHT31;54086;50.126;8.710;2023-03-23T15:41:17;15.38;73.78
67157;SHT31;54086;50.126;8.710;2023-03-23T15:43:56;15.30;74.14
67157;SHT31;54086;50.126;8.710;2023-03-23T15:46:25;15.31;74.70
67157;SHT31;54086;50.126;8.710;2023-03-23T15:49:08;15.28;74.88
67157;SHT31;54086;50.126;8.710;2023-03-23T15:51:35;15.22;75.59
67157;SHT31;54086;50.126;8.710;2023-03-23T15:54:01;15.07;76.77
67157;SHT31;54086;50.126;8.710;2023-03-23T15:56:26;15.06;77.00
67157;SHT31;54086;50.126;8.710;2023-03-23T15:58:52;14.99;77.33
67157;SHT31;54086;50.126;8.710;2023-03-23T16:01:18;15.03;77.31
67157;SHT31;54086;50.126;8.710;2023-03-23T16:03:54;15.00;77.19
67157;SHT31;54086;50.126;8.710;2023-03-23T16:06:23;15.03;77.67
67157;SHT31;54086;50.126;8.710;2023-03-23T16:08:50;14.89;78.10
67157;SHT31;54086;50.126;8.710;2023-03-23T16:11:17;14.89;78.32
67157;SHT31;54086;50.126;8.710;2023-03-23T16:13:43;14.93;78.36
67157;SHT31;54086;50.126;8.710;2023-03-23T16:16:22;14.82;78.55
67157;SHT31;54086;50.126;8.710;2023-03-23T16:18:47;14.76;78.85
67157;SHT31;54086;50.126;8.710;2023-03-23T16:21:13;14.62;79.71
67157;SHT31;54086;50.126;8.710;2023-03-23T16:23:38;14.64;79.81
67157;SHT31;54086;50.126;8.710;2023-03-23T16:26:05;14.59;80.20
67157;SHT31;54086;50.126;8.710;2023-03-23T16:28:31;14.49;80.88
67157;SHT31;54086;50.126;8.710;2023-03-23T16:30:56;14.31;81.91
67157;SHT31;54086;50.126;8.710;2023-03-23T16:33:22;14.24;82.37
67157;SHT31;54086;50.126;8.710;2023-03-23T16:35:47;14.18;82.76
67157;SHT31;54086;50.126;8.710;2023-03-23T16:38:14;14.20;82.84
67157;SHT31;54086;50.126;8.710;2023-03-23T16:40:41;14.20;83.02
67157;SHT31;54086;50.126;8.710;2023-03-23T16:43:07;14.15;83.51
67157;SHT31;54086;50.126;8.710;2023-03-23T16:45:32;14.15;83.54
67157;SHT31;54086;50.126;8.710;2023-03-23T16:47:57;14.03;84.07
67157;SHT31;54086;50.126;8.710;2023-03-23T16:50:26;13.94;84.31
67157;SHT31;54086;50.126;8.710;2023-03-23T16:52:52;13.90;84.40
67157;SHT31;54086;50.126;8.710;2023-03-23T16:55:18;13.94;84.36
67157;SHT31;54086;50.126;8.710;2023-03-23T16:57:43;13.96;84.15
67157;SHT31;54086;50.126;8.710;2023-03-23T17:00:12;13.84;84.45
67157;SHT31;54086;50.126;8.710;2023-03-23T17:02:43;13.83;84.68
67157;SHT31;54086;50.126;8.710;2023-03-23T17:05:09;13.86;84.58
67157;SHT31;54086;50.126;8.710;2023-03-23T17:07:38;13.81;84.47
67157;SHT31;54086;50.126;8.710;2023-03-23T17:10:06;13.81;84.43
67157;SHT31;54086;50.126;8.710;2023-03-23T17:12:32;13.81;84.38
67157;SHT31;54086;50.126;8.710;2023-03-23T17:14:57;13.77;84.33
67157;SHT31;54086;50.126;8.710;2023-03-23T17:17:23;13.78;84.43
67157;SHT31;54086;50.126;8.710;2023-03-23T17:19:51;13.76;84.42
67157;SHT31;54086;50.126;8.710;2023-03-23T17:22:17;13.77;84.31
67157;SHT31;54086;50.126;8.710;2023-03-23T17:24:42;13.69;84.40
67157;SHT31;54086;50.126;8.710;2023-03-23T17:27:08;13.74;83.89
67157;SHT31;54086;50.126;8.710;2023-03-23T17:29:33;13.80;83.34
67157;SHT31;54086;50.126;8.710;2023-03-23T17:31:59;13.81;83.43
67157;SHT31;54086;50.126;8.710;2023-03-23T17:34:24;13.80;82.97
67157;SHT31;54086;50.126;8.710;2023-03-23T17:36:49;13.81;82.80
67157;SHT31;54086;50.126;8.710;2023-03-23T17:39:15;13.78;82.49
67157;SHT31;54086;50.126;8.710;2023-03-23T17:41:41;13.83;82.17
67157;SHT31;54086;50.126;8.710;2023-03-23T17:44:06;13.84;82.26
67157;SHT31;54086;50.126;8.710;2023-03-23T17:46:32;13.88;82.05
67157;SHT31;54086;50.126;8.710;2023-03-23T17:48:58;13.91;81.77